Time;durP1;ratioP1;P1;durP2;ratioP2;P2;SDS_P1;SDS_P2;PMS_P1;PMS_P2;Temp;Humidity;BMP_temperature;BMP_pressure;BME280_temperature;BME280_humidity;BME280_pressure;Samples;Min_cycle;Max_cycle;Signal;HPM_P1;HPM_P2
2024/04/09 00:01:58;;;;;;;14.27;6.70;;;;;;;;;;5438829;26;20730;-70
2024/04/09 00:04:26;;;;;;;17.00;6.05;;;;;;;;;;5455578;26;20003;-70
2024/04/09 00:06:53;;;;;;;16.40;6.50;;;;;;;;;;5456195;26;20018;-72
2024/04/09 00:09:20;;;;;;;14.30;6.43;;;;;;;;;;5444192;26;19994;-71
2024/04/09 00:11:49;;;;;;;14.35;6.00;;;;;;;;;;5468412;26;20002;-70
2024/04/09 00:14:16;;;;;;;;;;;;;;;;;;5478250;26;20009;-70
2024/04/09 00:16:42;;;;;;;14.85;6.57;;;;;;;;;;5473025;26;19931;-71
2024/04/09 00:19:11;;;;;;;11.23;6.15;;;;;;;;;;5461973;26;20002;-72
2024/04/09 00:21:38;;;;;;;18.73;6.53;;;;;;;;;;5434599;26;20003;-70
2024/04/09 00:24:07;;;;;;;12.02;6.18;;;;;;;;;;5459754;26;20026;-70
2024/04/09 00:26:35;;;;;;;14.80;6.55;;;;;;;;;;5461689;26;20006;-70
2024/04/09 00:29:02;;;;;;;14.13;6.13;;;;;;;;;;5468715;26;20067;-70
2024/04/09 00:31:28;;;;;;;13.90;6.30;;;;;;;;;;5464035;26;20373;-71
2024/04/09 00:33:55;;;;;;;10.38;6.05;;;;;;;;;;5466777;26;20565;-70
2024/04/09 00:36:22;;;;;;;12.23;5.68;;;;;;;;;;5463686;26;20075;-71
2024/04/09 00:38:48;;;;;;;11.10;6.10;;;;;;;;;;5445816;26;20002;-72
2024/04/09 00:41:18;;;;;;;10.43;6.38;;;;;;;;;;5468842;26;20017;-71
2024/04/09 00:43:45;;;;;;;14.52;6.45;;;;;;;;;;5475996;26;20014;-71
2024/04/09 00:46:13;;;;;;;11.27;6.73;;;;;;;;;;5466160;26;20003;-71
2024/04/09 00:48:39;;;;;;;11.00;6.63;;;;;;;;;;5456150;26;20537;-71
2024/04/09 00:51:06;;;;;;;15.07;7.45;;;;;;;;;;5440481;26;19999;-70
2024/04/09 00:53:34;;;;;;;15.50;7.68;;;;;;;;;;5460173;26;20447;-71
2024/04/09 00:56:01;;;;;;;10.95;7.35;;;;;;;;;;5477526;26;19998;-70
2024/04/09 00:58:28;;;;;;;13.23;6.85;;;;;;;;;;5437064;26;20017;-70
2024/04/09 01:00:56;;;;;;;13.23;6.68;;;;;;;;;;5464067;26;20067;-70
2024/04/09 01:03:23;;;;;;;14.57;6.80;;;;;;;;;;5470554;26;20634;-71
2024/04/09 01:05:52;;;;;;;12.63;6.47;;;;;;;;;;5462742;26;20329;-70
2024/04/09 01:08:18;;;;;;;;;;;;;;;;;;5459828;26;19999;-70
2024/04/09 01:10:45;;;;;;;9.13;5.50;;;;;;;;;;5454418;26;19924;-71
2024/04/09 01:13:11;;;;;;;15.20;5.60;;;;;;;;;;5452212;26;20009;-70
2024/04/09 01:15:38;;;;;;;11.48;6.55;;;;;;;;;;5442902;26;20014;-69
2024/04/09 01:18:04;;;;;;;12.35;5.88;;;;;;;;;;5462018;26;19994;-70
2024/04/09 01:20:32;;;;;;;11.88;6.28;;;;;;;;;;5474706;26;20012;-70
2024/04/09 01:22:58;;;;;;;8.90;6.38;;;;;;;;;;5452996;26;20010;-71
2024/04/09 01:25:25;;;;;;;14.52;5.53;;;;;;;;;;5442840;26;20453;-70
2024/04/09 01:27:51;;;;;;;9.38;5.35;;;;;;;;;;5457214;26;20005;-71
2024/04/09 01:30:18;;;;;;;9.93;5.30;;;;;;;;;;5451406;26;20017;-70
2024/04/09 01:32:46;;;;;;;16.02;6.10;;;;;;;;;;5461865;26;20043;-70
2024/04/09 01:35:14;;;;;;;11.15;5.88;;;;;;;;;;5453732;26;20041;-71
2024/04/09 01:37:41;;;;;;;13.05;6.68;;;;;;;;;;5471753;26;20017;-70
2024/04/09 01:40:07;;;;;;;11.30;6.07;;;;;;;;;;5444531;26;20014;-69
2024/04/09 01:42:34;;;;;;;10.85;5.47;;;;;;;;;;5457680;26;20006;-70
2024/04/09 01:45:01;;;;;;;13.40;6.32;;;;;;;;;;5462852;26;20046;-71
2024/04/09 01:47:28;;;;;;;10.00;5.43;;;;;;;;;;5462878;26;20106;-70
2024/04/09 01:49:57;;;;;;;6.35;4.20;;;;;;;;;;5443384;26;20077;-71
2024/04/09 01:52:25;;;;;;;9.82;4.53;;;;;;;;;;5462456;26;20006;-70
2024/04/09 01:54:53;;;;;;;7.97;4.20;;;;;;;;;;5434962;26;20815;-71
2024/04/09 01:57:19;;;;;;;9.50;4.72;;;;;;;;;;5454740;26;20002;-70
2024/04/09 01:59:46;;;;;;;9.20;4.43;;;;;;;;;;5455857;26;20003;-70
2024/04/09 02:02:13;;;;;;;8.73;3.58;;;;;;;;;;5442693;26;19999;-70
2024/04/09 02:04:39;;;;;;;6.15;3.83;;;;;;;;;;5468802;26;20929;-71
2024/04/09 02:07:06;;;;;;;5.07;2.97;;;;;;;;;;5474154;26;20711;-69
2024/04/09 02:09:33;;;;;;;5.82;2.92;;;;;;;;;;5477191;26;20013;-70
2024/04/09 02:11:59;;;;;;;9.90;3.55;;;;;;;;;;5458606;26;20017;-70
2024/04/09 02:14:27;;;;;;;8.18;3.10;;;;;;;;;;5469122;26;20488;-69
2024/04/09 02:16:55;;;;;;;6.25;3.53;;;;;;;;;;5466736;26;20738;-70
2024/04/09 02:19:22;;;;;;;10.50;3.13;;;;;;;;;;5473755;26;20041;-70
2024/04/09 02:21:49;;;;;;;8.77;3.80;;;;;;;;;;5467087;26;20773;-70
2024/04/09 02:24:15;;;;;;;5.35;2.78;;;;;;;;;;5430258;26;20007;-70
2024/04/09 02:26:43;;;;;;;9.20;2.63;;;;;;;;;;5448799;26;20447;-70
2024/04/09 02:29:09;;;;;;;5.50;3.10;;;;;;;;;;5456425;26;20075;-71
2024/04/09 02:31:36;;;;;;;8.48;2.90;;;;;;;;;;5474785;26;19998;-70
2024/04/09 02:34:02;;;;;;;6.57;3.00;;;;;;;;;;5439912;26;20003;-72
2024/04/09 02:36:29;;;;;;;8.00;2.90;;;;;;;;;;5469313;26;20030;-70
2024/04/09 02:38:57;;;;;;;3.00;2.08;;;;;;;;;;5461444;26;20009;-71
2024/04/09 02:41:24;;;;;;;6.82;2.50;;;;;;;;;;5458275;26;20082;-70
2024/04/09 02:43:51;;;;;;;10.35;2.88;;;;;;;;;;5470021;26;20006;-70
2024/04/09 02:46:17;;;;;;;6.78;2.50;;;;;;;;;;5465767;26;19998;-69
2024/04/09 02:48:44;;;;;;;4.25;2.03;;;;;;;;;;5472826;26;20013;-69
2024/04/09 02:51:11;;;;;;;7.82;2.30;;;;;;;;;;5477573;26;20720;-70
2024/04/09 02:53:37;;;;;;;6.13;2.50;;;;;;;;;;5441821;26;20503;-70
2024/04/09 02:56:10;;;;;;;6.13;2.10;;;;;;;;;;5469672;26;20809;-70
2024/04/09 02:58:36;;;;;;;6.28;2.15;;;;;;;;;;5469047;26;20002;-70
2024/04/09 03:01:04;;;;;;;4.93;2.45;;;;;;;;;;5472608;26;20021;-71
2024/04/09 03:03:31;;;;;;;7.45;2.42;;;;;;;;;;5477948;26;20002;-70
2024/04/09 03:06:04;;;;;;;5.57;2.63;;;;;;;;;;5470308;26;19998;-71
2024/04/09 03:08:31;;;;;;;6.07;2.10;;;;;;;;;;5463500;26;21908;-70
2024/04/09 03:10:57;;;;;;;7.13;2.22;;;;;;;;;;5463607;26;20006;-70
2024/04/09 03:13:23;;;;;;;4.82;2.28;;;;;;;;;;5477438;26;20012;-70
2024/04/09 03:15:50;;;;;;;5.30;2.03;;;;;;;;;;5469736;26;20017;-70
2024/04/09 03:18:18;;;;;;;3.55;1.88;;;;;;;;;;5478173;26;19994;-70
2024/04/09 03:20:45;;;;;;;6.35;2.15;;;;;;;;;;5452185;26;20470;-71
2024/04/09 03:23:11;;;;;;;4.95;2.50;;;;;;;;;;5447028;26;20018;-70
2024/04/09 03:25:38;;;;;;;6.65;2.33;;;;;;;;;;5467971;26;20002;-70
2024/04/09 03:28:04;;;;;;;6.68;2.28;;;;;;;;;;5434334;26;19998;-71
2024/04/09 03:30:32;;;;;;;5.18;2.17;;;;;;;;;;5477645;26;20002;-71
2024/04/09 03:32:58;;;;;;;3.55;1.67;;;;;;;;;;5472335;26;20027;-70
2024/04/09 03:35:28;;;;;;;6.22;2.10;;;;;;;;;;5452116;26;20481;-71
2024/04/09 03:37:54;;;;;;;5.15;2.00;;;;;;;;;;5470257;26;19998;-70
2024/04/09 03:40:21;;;;;;;4.10;2.15;;;;;;;;;;5466890;26;20006;-70
2024/04/09 03:42:47;;;;;;;6.68;2.30;;;;;;;;;;5476367;26;20002;-70
2024/04/09 03:45:14;;;;;;;7.55;3.28;;;;;;;;;;5439823;26;20584;-70
2024/04/09 03:47:40;;;;;;;6.43;3.95;;;;;;;;;;5476362;26;20052;-71
2024/04/09 03:50:07;;;;;;;8.70;4.13;;;;;;;;;;5471083;26;20028;-70
2024/04/09 03:52:34;;;;;;;9.13;5.35;;;;;;;;;;5462559;26;20002;-69
2024/04/09 03:55:00;;;;;;;9.35;5.57;;;;;;;;;;5477519;26;20002;-71
2024/04/09 03:57:27;;;;;;;8.68;5.05;;;;;;;;;;5469730;26;20006;-70
2024/04/09 03:59:54;;;;;;;8.02;5.72;;;;;;;;;;5475233;26;19998;-70
2024/04/09 04:02:20;;;;;;;8.35;5.28;;;;;;;;;;5410384;26;20003;-69
2024/04/09 04:04:47;;;;;;;13.20;6.15;;;;;;;;;;5461749;26;20039;-70
2024/04/09 04:07:15;;;;;;;9.40;6.10;;;;;;;;;;5461134;26;20654;-70
2024/04/09 04:09:42;;;;;;;11.75;6.97;;;;;;;;;;5469987;26;20050;-70
2024/04/09 04:12:09;;;;;;;11.45;6.93;;;;;;;;;;5444446;26;20006;-70
2024/04/09 04:14:35;;;;;;;11.93;7.50;;;;;;;;;;5477408;26;20012;-71
2024/04/09 04:17:03;;;;;;;12.40;6.93;;;;;;;;;;5435491;26;20841;-70
2024/04/09 04:19:29;;;;;;;12.70;8.05;;;;;;;;;;5459288;26;20634;-70
2024/04/09 04:21:56;;;;;;;12.20;7.43;;;;;;;;;;5450232;26;20002;-69
2024/04/09 04:24:23;;;;;;;9.93;7.32;;;;;;;;;;5444974;26;20043;-70
2024/04/09 04:26:49;;;;;;;10.60;7.28;;;;;;;;;;5473548;26;20006;-71
2024/04/09 04:29:16;;;;;;;10.82;8.30;;;;;;;;;;5467237;26;20840;-70
2024/04/09 04:31:43;;;;;;;12.63;8.02;;;;;;;;;;5444747;26;20458;-70
2024/04/09 04:34:10;;;;;;;15.27;8.43;;;;;;;;;;5452143;26;20012;-71
2024/04/09 04:36:37;;;;;;;15.33;8.53;;;;;;;;;;5454814;26;20461;-70
2024/04/09 04:39:04;;;;;;;16.92;10.90;;;;;;;;;;5451674;26;20051;-69
2024/04/09 04:41:30;;;;;;;16.15;11.18;;;;;;;;;;5452452;26;20079;-69
2024/04/09 04:43:57;;;;;;;17.55;10.10;;;;;;;;;;5436363;26;20006;-69
2024/04/09 04:46:24;;;;;;;15.13;10.55;;;;;;;;;;5411242;26;19999;-70
2024/04/09 04:48:50;;;;;;;18.88;10.48;;;;;;;;;;5467783;26;20017;-68
2024/04/09 04:51:17;;;;;;;13.38;9.15;;;;;;;;;;5456353;26;20076;-70
2024/04/09 04:53:43;;;;;;;15.38;8.75;;;;;;;;;;5472980;26;20006;-69
2024/04/09 04:56:10;;;;;;;13.35;9.77;;;;;;;;;;5449920;26;20013;-70
2024/04/09 04:58:36;;;;;;;10.95;7.65;;;;;;;;;;5427826;26;20467;-70
2024/04/09 05:01:03;;;;;;;11.90;7.50;;;;;;;;;;5463445;26;20358;-71
2024/04/09 05:03:29;;;;;;;12.00;7.85;;;;;;;;;;5460065;26;20458;-69
2024/04/09 05:06:04;;;;;;;12.00;7.47;;;;;;;;;;5439363;26;20104;-69
2024/04/09 05:08:31;;;;;;;9.93;7.75;;;;;;;;;;5470449;26;20086;-72
2024/04/09 05:10:58;;;;;;;12.73;8.10;;;;;;;;;;5470554;26;20013;-69
2024/04/09 05:13:24;;;;;;;12.10;8.32;;;;;;;;;;5468227;26;20002;-70
2024/04/09 05:15:51;;;;;;;12.25;8.38;;;;;;;;;;5429114;26;19998;-70
2024/04/09 05:18:18;;;;;;;14.00;9.13;;;;;;;;;;5476279;26;20439;-69
2024/04/09 05:20:44;;;;;;;13.35;9.10;;;;;;;;;;5463284;26;20009;-72
2024/04/09 05:23:11;;;;;;;14.85;9.85;;;;;;;;;;5419673;26;20014;-69
2024/04/09 05:25:37;;;;;;;15.20;10.90;;;;;;;;;;5471132;26;20017;-70
2024/04/09 05:28:04;;;;;;;16.50;11.00;;;;;;;;;;5454436;26;19998;-71
2024/04/09 05:30:30;;;;;;;15.85;11.88;;;;;;;;;;5469533;26;20017;-70
2024/04/09 05:32:57;;;;;;;16.27;12.18;;;;;;;;;;5467753;26;20592;-70
2024/04/09 05:35:25;;;;;;;14.75;11.75;;;;;;;;;;5474687;26;19998;-69
2024/04/09 05:37:52;;;;;;;12.40;9.98;;;;;;;;;;5477556;26;20458;-72
2024/04/09 05:40:19;;;;;;;13.35;8.70;;;;;;;;;;5460577;26;20006;-72
2024/04/09 05:42:48;;;;;;;11.85;8.60;;;;;;;;;;5465960;26;19998;-74
2024/04/09 05:45:17;;;;;;;10.65;7.68;;;;;;;;;;5450980;26;20016;-73
2024/04/09 05:47:44;;;;;;;8.65;6.47;;;;;;;;;;5464502;26;20462;-73
2024/04/09 05:50:11;;;;;;;11.18;6.45;;;;;;;;;;5460637;26;20010;-73
2024/04/09 05:52:38;;;;;;;11.20;6.13;;;;;;;;;;5460215;26;20028;-73
2024/04/09 05:55:05;;;;;;;8.60;5.28;;;;;;;;;;5474076;26;20572;-73
2024/04/09 05:57:36;;;;;;;7.80;4.60;;;;;;;;;;5439999;26;20011;-72
2024/04/09 06:00:08;;;;;;;9.80;6.20;;;;;;;;;;5461537;26;19998;-72
2024/04/09 06:02:36;;;;;;;9.18;4.60;;;;;;;;;;5463930;26;20403;-73
2024/04/09 06:05:03;;;;;;;5.43;4.00;;;;;;;;;;5476469;26;20006;-73
2024/04/09 06:07:30;;;;;;;7.68;4.10;;;;;;;;;;5474811;26;19998;-73
2024/04/09 06:09:57;;;;;;;8.30;4.00;;;;;;;;;;5436935;26;20382;-73
2024/04/09 06:12:24;;;;;;;9.93;4.03;;;;;;;;;;5470503;26;19998;-74
2024/04/09 06:14:53;;;;;;;10.35;4.20;;;;;;;;;;5463010;26;20010;-70
2024/04/09 06:17:20;;;;;;;5.75;4.20;;;;;;;;;;5440980;26;20797;-71
2024/04/09 06:19:47;;;;;;;8.02;3.60;;;;;;;;;;5460595;26;20035;-72
2024/04/09 06:22:14;;;;;;;6.82;4.03;;;;;;;;;;5431324;26;20054;-70
2024/04/09 06:24:41;;;;;;;5.78;3.75;;;;;;;;;;5450164;26;20014;-71
2024/04/09 06:27:08;;;;;;;5.57;3.33;;;;;;;;;;5451401;26;20089;-71
2024/04/09 06:29:35;;;;;;;2.75;2.25;;;;;;;;;;5475937;26;20013;-71
2024/04/09 06:32:01;;;;;;;5.57;2.38;;;;;;;;;;5468699;26;20020;-71
2024/04/09 06:34:28;;;;;;;4.18;2.17;;;;;;;;;;5478172;26;20053;-71
2024/04/09 06:36:54;;;;;;;6.15;1.77;;;;;;;;;;5444694;26;20038;-71
2024/04/09 06:39:21;;;;;;;4.60;2.03;;;;;;;;;;5465127;26;20002;-71
2024/04/09 06:41:51;;;;;;;3.33;1.60;;;;;;;;;;5466032;26;20002;-71
2024/04/09 06:44:17;;;;;;;2.63;1.70;;;;;;;;;;5467370;26;20093;-71
2024/04/09 06:46:44;;;;;;;5.03;1.98;;;;;;;;;;5477698;26;20013;-72
2024/04/09 06:49:10;;;;;;;7.47;1.85;;;;;;;;;;5466172;26;19998;-72
2024/04/09 06:51:37;;;;;;;3.88;2.47;;;;;;;;;;5431025;26;20007;-71
2024/04/09 06:54:03;;;;;;;5.38;1.75;;;;;;;;;;5471288;26;19998;-71
2024/04/09 06:56:30;;;;;;;2.97;1.73;;;;;;;;;;5460504;26;20113;-71
2024/04/09 06:58:56;;;;;;;4.30;1.42;;;;;;;;;;5445917;26;19994;-70
2024/04/09 07:01:23;;;;;;;3.47;1.00;;;;;;;;;;5469211;26;20017;-71
2024/04/09 07:03:50;;;;;;;2.00;1.00;;;;;;;;;;5476775;26;20061;-71
2024/04/09 07:06:16;;;;;;;4.82;1.27;;;;;;;;;;5491791;26;20013;-72
2024/04/09 07:08:43;;;;;;;3.58;0.95;;;;;;;;;;5460147;26;20753;-71
2024/04/09 07:11:09;;;;;;;3.15;0.80;;;;;;;;;;5469137;26;20010;-71
2024/04/09 07:13:36;;;;;;;2.70;0.70;;;;;;;;;;5461457;26;20013;-71
2024/04/09 07:16:07;;;;;;;5.70;1.23;;;;;;;;;;5470146;26;20669;-70
2024/04/09 07:18:35;;;;;;;4.57;0.93;;;;;;;;;;5477919;26;20002;-71
2024/04/09 07:21:04;;;;;;;4.20;0.85;;;;;;;;;;5442227;26;20002;-71
2024/04/09 07:23:31;;;;;;;3.83;0.80;;;;;;;;;;5470856;26;20462;-71
2024/04/09 07:25:57;;;;;;;3.53;0.85;;;;;;;;;;5459877;26;19999;-71
2024/04/09 07:28:24;;;;;;;5.18;1.13;;;;;;;;;;5445391;26;20010;-71
2024/04/09 07:30:50;;;;;;;2.13;0.82;;;;;;;;;;5466947;26;20407;-70
2024/04/09 07:33:17;;;;;;;5.57;1.20;;;;;;;;;;5464480;26;19998;-71
2024/04/09 07:35:45;;;;;;;6.85;1.00;;;;;;;;;;5456291;26;20006;-71
2024/04/09 07:38:11;;;;;;;3.55;1.20;;;;;;;;;;5452049;26;20014;-71
2024/04/09 07:40:39;;;;;;;5.18;1.20;;;;;;;;;;5408502;26;20003;-71
2024/04/09 07:43:07;;;;;;;3.20;1.10;;;;;;;;;;5426324;26;20828;-72
2024/04/09 07:45:34;;;;;;;4.95;0.82;;;;;;;;;;5465737;26;19998;-71
2024/04/09 07:48:00;;;;;;;5.13;0.82;;;;;;;;;;5473127;26;20006;-72
2024/04/09 07:50:27;;;;;;;4.80;0.80;;;;;;;;;;5447627;26;20813;-72
2024/04/09 07:52:54;;;;;;;4.65;0.80;;;;;;;;;;5468610;26;20634;-71
2024/04/09 07:55:20;;;;;;;6.90;1.38;;;;;;;;;;5436027;26;20373;-71
2024/04/09 07:57:47;;;;;;;5.95;1.20;;;;;;;;;;5477267;26;20002;-70
2024/04/09 08:00:14;;;;;;;9.65;1.27;;;;;;;;;;5477164;26;20998;-72
2024/04/09 08:02:41;;;;;;;2.30;0.80;;;;;;;;;;5470532;26;20014;-72
2024/04/09 08:05:09;;;;;;;5.53;1.08;;;;;;;;;;5448604;26;20014;-73
2024/04/09 08:07:39;;;;;;;3.88;1.10;;;;;;;;;;5463423;26;20082;-72
2024/04/09 08:10:11;;;;;;;4.57;1.00;;;;;;;;;;5454717;26;20006;-72
2024/04/09 08:12:39;;;;;;;4.28;0.90;;;;;;;;;;5441347;26;20013;-73
2024/04/09 08:15:07;;;;;;;7.13;1.42;;;;;;;;;;5467521;26;19998;-72
2024/04/09 08:17:37;;;;;;;5.82;1.02;;;;;;;;;;5464187;26;20003;-72
2024/04/09 08:20:07;;;;;;;3.20;0.80;;;;;;;;;;5460672;26;20002;-73
2024/04/09 08:22:34;;;;;;;4.22;0.90;;;;;;;;;;5457421;26;20031;-73
2024/04/09 08:25:01;;;;;;;5.80;1.10;;;;;;;;;;5438247;26;20007;-72
2024/04/09 08:27:28;;;;;;;5.60;1.55;;;;;;;;;;5476999;26;20407;-72
2024/04/09 08:29:54;;;;;;;4.65;1.05;;;;;;;;;;5468339;26;20002;-72
2024/04/09 08:32:21;;;;;;;5.10;1.48;;;;;;;;;;5437131;26;19998;-72
2024/04/09 08:34:48;;;;;;;3.70;0.85;;;;;;;;;;5472441;26;20002;-73
2024/04/09 08:37:15;;;;;;;2.92;0.88;;;;;;;;;;5460191;26;20002;-72
2024/04/09 08:39:42;;;;;;;2.75;0.88;;;;;;;;;;5478720;26;20002;-72
2024/04/09 08:42:08;;;;;;;4.18;1.00;;;;;;;;;;5442984;26;19999;-72
2024/04/09 08:44:36;;;;;;;5.28;1.10;;;;;;;;;;5429377;26;20860;-72
2024/04/09 08:47:03;;;;;;;9.43;1.27;;;;;;;;;;5455811;26;20045;-73
2024/04/09 08:49:30;;;;;;;3.28;1.10;;;;;;;;;;5454587;26;19998;-72
2024/04/09 08:51:57;;;;;;;4.85;1.00;;;;;;;;;;5472195;26;20473;-72
2024/04/09 08:54:24;;;;;;;7.13;1.20;;;;;;;;;;5468093;26;20010;-72
2024/04/09 08:56:51;;;;;;;3.60;1.15;;;;;;;;;;5449028;26;20031;-72
2024/04/09 08:59:17;;;;;;;6.55;1.15;;;;;;;;;;5477812;26;20062;-72
2024/04/09 09:01:44;;;;;;;8.73;1.20;;;;;;;;;;5436576;26;20037;-72
2024/04/09 09:04:11;;;;;;;2.60;0.80;;;;;;;;;;5470801;26;20014;-73
2024/04/09 09:06:43;;;;;;;6.95;1.00;;;;;;;;;;5428340;26;20009;-72
2024/04/09 09:09:20;;;;;;;8.32;1.05;;;;;;;;;;5477613;26;20490;-72
2024/04/09 09:11:47;;;;;;;4.68;0.90;;;;;;;;;;5419238;26;20075;-72
2024/04/09 09:14:14;;;;;;;6.78;1.10;;;;;;;;;;5467415;26;19994;-72
2024/04/09 09:16:41;;;;;;;5.95;1.00;;;;;;;;;;5442003;26;20010;-72
2024/04/09 09:19:08;;;;;;;2.60;0.80;;;;;;;;;;5450882;26;20020;-72
2024/04/09 09:21:34;;;;;;;5.68;1.33;;;;;;;;;;5478123;26;20013;-72
2024/04/09 09:24:01;;;;;;;4.75;1.27;;;;;;;;;;5449376;26;20013;-72
2024/04/09 09:26:27;;;;;;;3.60;1.00;;;;;;;;;;5465816;26;20006;-72
2024/04/09 09:29:01;;;;;;;5.15;1.05;;;;;;;;;;5476029;26;20071;-73
2024/04/09 09:31:29;;;;;;;8.45;0.90;;;;;;;;;;5460612;26;20008;-72
2024/04/09 09:33:59;;;;;;;7.93;1.10;;;;;;;;;;5469845;26;20014;-72
2024/04/09 09:36:26;;;;;;;3.03;0.80;;;;;;;;;;5467646;26;20255;-72
2024/04/09 09:38:53;;;;;;;2.92;1.00;;;;;;;;;;5474561;26;20006;-71
2024/04/09 09:41:19;;;;;;;5.75;1.00;;;;;;;;;;5457029;26;20053;-72
2024/04/09 09:43:46;;;;;;;7.95;1.38;;;;;;;;;;5432285;26;19999;-73
2024/04/09 09:46:13;;;;;;;7.45;1.13;;;;;;;;;;5463949;26;20040;-73
2024/04/09 09:48:40;;;;;;;4.88;1.20;;;;;;;;;;5437627;26;20017;-72
2024/04/09 09:51:07;;;;;;;4.80;1.25;;;;;;;;;;5464791;26;20010;-71
2024/04/09 09:53:33;;;;;;;6.15;0.90;;;;;;;;;;5447406;26;20353;-72
2024/04/09 09:56:04;;;;;;;3.97;0.90;;;;;;;;;;5430406;26;19995;-72
2024/04/09 09:58:32;;;;;;;8.18;1.25;;;;;;;;;;5459751;26;20002;-71
2024/04/09 10:00:59;;;;;;;4.30;1.23;;;;;;;;;;5459326;26;20013;-72
2024/04/09 10:03:30;;;;;;;6.60;1.50;;;;;;;;;;5474117;26;20226;-72
2024/04/09 10:05:58;;;;;;;8.13;1.38;;;;;;;;;;5468175;26;20633;-72
2024/04/09 10:08:28;;;;;;;5.20;0.95;;;;;;;;;;5473864;26;20013;-72
2024/04/09 10:10:55;;;;;;;8.07;1.30;;;;;;;;;;5445244;26;20009;-72
2024/04/09 10:13:25;;;;;;;4.60;1.10;;;;;;;;;;5460829;26;20466;-72
2024/04/09 10:15:56;;;;;;;5.13;1.10;;;;;;;;;;5470303;26;20074;-72
2024/04/09 10:18:26;;;;;;;4.78;1.27;;;;;;;;;;5467307;26;20053;-72
2024/04/09 10:20:53;;;;;;;4.18;0.90;;;;;;;;;;5475128;26;19998;-73
2024/04/09 10:23:22;;;;;;;3.25;0.73;;;;;;;;;;5427132;26;20347;-72
2024/04/09 10:25:48;;;;;;;6.05;1.00;;;;;;;;;;5464450;26;19994;-72
2024/04/09 10:28:26;;;;;;;2.80;0.80;;;;;;;;;;5469462;26;20002;-72
2024/04/09 10:31:03;;;;;;;4.38;1.10;;;;;;;;;;5443675;26;20557;-72
2024/04/09 10:33:32;;;;;;;4.10;1.13;;;;;;;;;;5444139;26;20002;-72
2024/04/09 10:35:59;;;;;;;8.68;1.48;;;;;;;;;;5461137;26;20789;-72
2024/04/09 10:38:26;;;;;;;5.30;0.90;;;;;;;;;;5471530;26;20063;-72
2024/04/09 10:40:54;;;;;;;6.88;1.10;;;;;;;;;;5438623;26;20017;-72
2024/04/09 10:43:21;;;;;;;1.77;0.68;;;;;;;;;;5459124;26;20074;-72
2024/04/09 10:45:47;;;;;;;3.80;0.82;;;;;;;;;;5431703;26;20002;-71
2024/04/09 10:48:31;;;;;;;4.15;1.25;;;;;;;;;;5441395;26;20030;-71
2024/04/09 10:50:59;;;;;;;4.57;1.10;;;;;;;;;;5455128;26;19999;-73
2024/04/09 10:53:26;;;;;;;3.38;0.73;;;;;;;;;;5462325;26;19998;-71
2024/04/09 10:56:00;;;;;;;4.03;0.93;;;;;;;;;;5465893;26;20006;-73
2024/04/09 10:58:26;;;;;;;6.43;0.90;;;;;;;;;;5469883;26;19998;-71
2024/04/09 11:00:56;;;;;;;4.88;0.70;;;;;;;;;;5466023;26;19998;-72
2024/04/09 11:03:23;;;;;;;5.63;0.70;;;;;;;;;;5475255;26;20014;-72
2024/04/09 11:05:53;;;;;;;4.35;0.77;;;;;;;;;;5454206;26;20046;-72
2024/04/09 11:08:30;;;;;;;4.57;1.33;;;;;;;;;;5471038;26;20569;-72
2024/04/09 11:10:59;;;;;;;9.83;0.97;;;;;;;;;;5423961;26;20022;-70
2024/04/09 11:13:29;;;;;;;3.03;0.82;;;;;;;;;;5461488;26;20527;-71
2024/04/09 11:15:57;;;;;;;3.22;0.88;;;;;;;;;;5479507;26;19994;-71
2024/04/09 11:18:25;;;;;;;6.57;0.73;;;;;;;;;;5427224;26;20002;-72
2024/04/09 11:20:53;;;;;;;5.28;0.82;;;;;;;;;;5440606;26;20080;-70
2024/04/09 11:23:22;;;;;;;5.50;0.80;;;;;;;;;;5397210;26;20010;-71
2024/04/09 11:25:48;;;;;;;;;;;;;;;;;;5460618;26;20018;-70
2024/04/09 11:28:14;;;;;;;2.78;0.70;;;;;;;;;;5433071;26;19923;-71
2024/04/09 11:30:46;;;;;;;3.38;0.80;;;;;;;;;;5468237;26;20450;-71
2024/04/09 11:33:16;;;;;;;1.77;0.70;;;;;;;;;;5455891;26;20769;-70
2024/04/09 11:35:43;;;;;;;3.53;1.05;;;;;;;;;;5469273;26;19998;-71
2024/04/09 11:38:10;;;;;;;3.65;0.70;;;;;;;;;;5471269;26;20017;-71
2024/04/09 11:40:37;;;;;;;5.75;0.70;;;;;;;;;;5471833;26;20025;-71
2024/04/09 11:43:03;;;;;;;3.70;0.80;;;;;;;;;;5467932;26;20004;-70
2024/04/09 11:45:33;;;;;;;5.93;1.10;;;;;;;;;;5467173;26;20013;-71
2024/04/09 11:48:00;;;;;;;2.30;0.75;;;;;;;;;;5468186;26;20763;-71
2024/04/09 11:50:27;;;;;;;4.68;1.15;;;;;;;;;;5478693;26;20439;-71
2024/04/09 11:52:53;;;;;;;3.10;0.90;;;;;;;;;;5453213;26;20002;-71
2024/04/09 11:55:20;;;;;;;2.53;0.73;;;;;;;;;;5451712;26;20831;-71
2024/04/09 11:57:51;;;;;;;7.82;0.90;;;;;;;;;;5477183;26;20022;-71
2024/04/09 12:00:18;;;;;;;3.22;1.00;;;;;;;;;;5468950;26;20669;-71
2024/04/09 12:02:45;;;;;;;3.00;1.00;;;;;;;;;;5446139;26;20008;-70
2024/04/09 12:05:12;;;;;;;2.88;0.77;;;;;;;;;;5464955;26;20013;-72
2024/04/09 12:07:40;;;;;;;3.03;0.80;;;;;;;;;;5471994;26;20002;-71
2024/04/09 12:10:09;;;;;;;3.28;0.65;;;;;;;;;;5472376;26;20469;-71
2024/04/09 12:12:36;;;;;;;5.18;0.80;;;;;;;;;;5437332;26;20012;-72
2024/04/09 12:15:06;;;;;;;3.63;0.80;;;;;;;;;;5444604;26;20029;-72
2024/04/09 12:17:33;;;;;;;3.80;0.90;;;;;;;;;;5469376;26;20022;-72
2024/04/09 12:20:00;;;;;;;4.00;0.82;;;;;;;;;;5423112;26;20105;-70
2024/04/09 12:22:27;;;;;;;3.40;0.80;;;;;;;;;;5459330;26;20109;-70
2024/04/09 12:24:56;;;;;;;3.63;0.98;;;;;;;;;;5454320;26;20002;-72
2024/04/09 12:27:22;;;;;;;2.90;0.70;;;;;;;;;;5442059;26;20012;-73
2024/04/09 12:29:49;;;;;;;3.28;0.73;;;;;;;;;;5456934;26;20010;-72
2024/04/09 12:32:16;;;;;;;2.90;0.70;;;;;;;;;;5445203;26;20049;-72
2024/04/09 12:34:42;;;;;;;4.32;1.00;;;;;;;;;;5456278;26;20428;-71
2024/04/09 12:37:09;;;;;;;4.43;0.95;;;;;;;;;;5417739;26;20475;-71
2024/04/09 12:39:37;;;;;;;4.25;1.08;;;;;;;;;;5433332;26;20002;-73
2024/04/09 12:42:03;;;;;;;3.70;0.70;;;;;;;;;;5453745;26;20017;-73
2024/04/09 12:44:30;;;;;;;7.68;1.27;;;;;;;;;;5463625;26;20362;-72
2024/04/09 12:46:56;;;;;;;4.18;1.08;;;;;;;;;;5468492;26;19998;-72
2024/04/09 12:49:27;;;;;;;3.72;0.80;;;;;;;;;;5470438;26;20002;-73
2024/04/09 12:52:09;;;;;;;3.20;1.00;;;;;;;;;;5463173;26;20665;-71
2024/04/09 12:54:35;;;;;;;;;;;;;;;;;;5457347;26;20020;-72
2024/04/09 12:57:02;;;;;;;5.07;1.05;;;;;;;;;;5463733;26;20374;-71
2024/04/09 12:59:35;;;;;;;1.83;0.68;;;;;;;;;;5428064;26;20342;-71
2024/04/09 13:02:06;;;;;;;3.67;1.00;;;;;;;;;;5460755;26;21148;-72
2024/04/09 13:04:33;;;;;;;;;;;;;;;;;;5429893;26;20002;-73
2024/04/09 13:06:59;;;;;;;3.53;0.90;;;;;;;;;;5449206;26;19931;-71
2024/04/09 13:09:26;;;;;;;5.95;0.90;;;;;;;;;;5476833;26;20010;-72
2024/04/09 13:11:53;;;;;;;3.45;0.95;;;;;;;;;;5435393;26;20024;-73
2024/04/09 13:14:19;;;;;;;4.80;0.90;;;;;;;;;;5426885;26;20003;-71
2024/04/09 13:16:46;;;;;;;2.75;0.80;;;;;;;;;;5461802;26;20010;-72
2024/04/09 13:19:18;;;;;;;5.47;0.77;;;;;;;;;;5461899;26;20003;-72
2024/04/09 13:21:46;;;;;;;6.45;0.80;;;;;;;;;;5462304;26;20002;-72
2024/04/09 13:24:12;;;;;;;2.20;0.70;;;;;;;;;;5462525;26;20001;-70
2024/04/09 13:26:39;;;;;;;4.32;1.00;;;;;;;;;;5474082;26;20013;-72
2024/04/09 13:29:06;;;;;;;3.15;0.60;;;;;;;;;;5445868;26;20013;-71
2024/04/09 13:31:33;;;;;;;5.10;0.80;;;;;;;;;;5458060;26;20003;-71
2024/04/09 13:33:59;;;;;;;4.25;0.85;;;;;;;;;;5469380;26;19998;-71
2024/04/09 13:36:26;;;;;;;3.95;0.60;;;;;;;;;;5466746;26;20014;-72
2024/04/09 13:38:53;;;;;;;5.45;1.08;;;;;;;;;;5465439;26;19994;-72
2024/04/09 13:41:20;;;;;;;6.00;0.80;;;;;;;;;;5460018;26;20010;-70
2024/04/09 13:43:47;;;;;;;6.43;0.90;;;;;;;;;;5473239;26;20002;-71
2024/04/09 13:46:15;;;;;;;3.85;0.77;;;;;;;;;;5461092;26;20450;-72
2024/04/09 13:48:42;;;;;;;2.63;0.70;;;;;;;;;;5465560;26;20067;-69
2024/04/09 13:51:09;;;;;;;3.58;0.75;;;;;;;;;;5474183;26;20019;-69
2024/04/09 13:53:37;;;;;;;3.40;0.65;;;;;;;;;;5460621;26;20523;-70
2024/04/09 13:56:03;;;;;;;3.53;0.70;;;;;;;;;;5461302;26;20044;-69
2024/04/09 13:58:30;;;;;;;4.40;0.70;;;;;;;;;;5466963;26;19998;-70
2024/04/09 14:00:57;;;;;;;2.95;0.85;;;;;;;;;;5469777;26;20960;-70
2024/04/09 14:03:23;;;;;;;3.92;1.52;;;;;;;;;;5469678;26;20041;-69
2024/04/09 14:05:50;;;;;;;4.53;0.90;;;;;;;;;;5467471;26;20021;-70
2024/04/09 14:08:16;;;;;;;5.78;1.00;;;;;;;;;;5457274;26;20100;-71
2024/04/09 14:10:44;;;;;;;4.25;0.70;;;;;;;;;;5467382;26;20070;-72
2024/04/09 14:13:12;;;;;;;1.80;0.70;;;;;;;;;;5476264;26;19998;-69
2024/04/09 14:15:38;;;;;;;7.75;1.00;;;;;;;;;;5470916;26;20066;-70
2024/04/09 14:18:08;;;;;;;4.93;0.90;;;;;;;;;;5446483;26;20013;-70
2024/04/09 14:20:35;;;;;;;4.35;0.80;;;;;;;;;;5472944;26;20010;-71
2024/04/09 14:23:02;;;;;;;7.80;1.00;;;;;;;;;;5432090;26;20003;-72
2024/04/09 14:25:29;;;;;;;5.50;0.80;;;;;;;;;;5441437;26;20003;-71
2024/04/09 14:27:56;;;;;;;5.03;0.80;;;;;;;;;;5468910;26;20474;-71
2024/04/09 14:30:24;;;;;;;3.38;1.13;;;;;;;;;;5466890;26;20010;-72
2024/04/09 14:32:50;;;;;;;2.50;0.60;;;;;;;;;;5439319;26;20002;-70
2024/04/09 14:35:17;;;;;;;4.18;1.00;;;;;;;;;;5432586;26;20058;-71
2024/04/09 14:37:44;;;;;;;2.22;0.70;;;;;;;;;;5444916;26;20028;-73
2024/04/09 14:40:10;;;;;;;4.32;0.80;;;;;;;;;;5458850;26;20013;-72
2024/04/09 14:42:37;;;;;;;8.40;1.10;;;;;;;;;;5458937;26;20003;-73